sensor_id;sensor_type;location;lat;lon;timestamp;P1;durP1;ratioP1;P2;durP2;ratioP2
33864;SDS011;20159;51.072;13.526;2023-06-10T02:07:51;9.40;;;8.50;;
33864;SDS011;20159;51.072;13.526;2023-06-10T02:10:16;9.32;;;8.43;;
33864;SDS011;20159;51.072;13.526;2023-06-10T02:12:42;9.07;;;8.13;;
33864;SDS011;20159;51.072;13.526;2023-06-10T02:15:07;9.13;;;8.23;;
33864;SDS011;20159;51.072;13.526;2023-06-10T02:17:33;9.23;;;8.15;;
33864;SDS011;20159;51.072;13.526;2023-06-10T02:19:58;8.05;;;7.18;;
33864;SDS011;20159;51.072;13.526;2023-06-10T02:22:24;11.07;;;8.10;;
33864;SDS011;20159;51.072;13.526;2023-06-10T02:24:50;8.77;;;7.70;;
33864;SDS011;20159;51.072;13.526;2023-06-10T02:27:16;8.93;;;8.02;;
33864;SDS011;20159;51.072;13.526;2023-06-10T02:29:43;9.30;;;8.32;;
33864;SDS011;20159;51.072;13.526;2023-06-10T02:32:09;9.00;;;8.20;;
33864;SDS011;20159;51.072;13.526;2023-06-10T02:34:35;9.57;;;8.35;;
33864;SDS011;20159;51.072;13.526;2023-06-10T02:37:01;10.00;;;8.93;;
33864;SDS011;20159;51.072;13.526;2023-06-10T02:39:27;9.80;;;8.85;;
33864;SDS011;20159;51.072;13.526;2023-06-10T02:41:54;10.95;;;8.50;;
33864;SDS011;20159;51.072;13.526;2023-06-10T02:44:20;9.50;;;8.68;;
33864;SDS011;20159;51.072;13.526;2023-06-10T02:46:45;8.93;;;8.13;;
33864;SDS011;20159;51.072;13.526;2023-06-10T02:49:11;9.63;;;8.57;;
33864;SDS011;20159;51.072;13.526;2023-06-10T02:51:37;9.68;;;8.60;;
33864;SDS011;20159;51.072;13.526;2023-06-10T02:54:03;9.27;;;8.38;;
33864;SDS011;20159;51.072;13.526;2023-06-10T02:56:29;9.82;;;8.82;;
33864;SDS011;20159;51.072;13.526;2023-06-10T02:58:56;10.15;;;9.20;;
33864;SDS011;20159;51.072;13.526;2023-06-10T03:01:22;9.93;;;8.93;;
33864;SDS011;20159;51.072;13.526;2023-06-10T03:03:47;11.20;;;9.27;;
33864;SDS011;20159;51.072;13.526;2023-06-10T03:06:13;10.75;;;9.32;;
33864;SDS011;20159;51.072;13.526;2023-06-10T03:08:39;10.35;;;9.35;;
33864;SDS011;20159;51.072;13.526;2023-06-10T03:11:05;13.93;;;9.15;;
33864;SDS011;20159;51.072;13.526;2023-06-10T03:13:30;9.57;;;8.57;;
33864;SDS011;20159;51.072;13.526;2023-06-10T03:15:56;10.77;;;9.68;;
33864;SDS011;20159;51.072;13.526;2023-06-10T03:18:25;9.65;;;8.75;;
33864;SDS011;20159;51.072;13.526;2023-06-10T03:20:51;10.32;;;9.32;;
33864;SDS011;20159;51.072;13.526;2023-06-10T03:23:17;10.85;;;9.75;;
33864;SDS011;20159;51.072;13.526;2023-06-10T03:25:43;10.68;;;9.70;;
33864;SDS011;20159;51.072;13.526;2023-06-10T03:28:09;10.30;;;9.30;;
33864;SDS011;20159;51.072;13.526;2023-06-10T03:30:35;10.15;;;9.15;;
33864;SDS011;20159;51.072;13.526;2023-06-10T03:33:00;10.60;;;9.10;;
33864;SDS011;20159;51.072;13.526;2023-06-10T03:35:26;9.63;;;8.73;;
33864;SDS011;20159;51.072;13.526;2023-06-10T03:37:51;10.23;;;9.10;;
33864;SDS011;20159;51.072;13.526;2023-06-10T03:40:17;9.95;;;9.05;;
33864;SDS011;20159;51.072;13.526;2023-06-10T03:42:42;11.38;;;9.70;;
33864;SDS011;20159;51.072;13.526;2023-06-10T03:45:11;9.82;;;8.93;;
33864;SDS011;20159;51.072;13.526;2023-06-10T03:47:37;9.20;;;8.40;;
33864;SDS011;20159;51.072;13.526;2023-06-10T03:50:05;10.30;;;9.30;;
33864;SDS011;20159;51.072;13.526;2023-06-10T03:52:33;9.60;;;8.70;;
33864;SDS011;20159;51.072;13.526;2023-06-10T03:54:58;10.50;;;9.50;;
33864;SDS011;20159;51.072;13.526;2023-06-10T03:57:24;10.02;;;9.07;;
33864;SDS011;20159;51.072;13.526;2023-06-10T03:59:50;10.13;;;9.23;;
33864;SDS011;20159;51.072;13.526;2023-06-10T04:02:16;10.38;;;9.02;;
33864;SDS011;20159;51.072;13.526;2023-06-10T04:04:41;9.27;;;8.48;;
33864;SDS011;20159;51.072;13.526;2023-06-10T04:07:07;9.77;;;8.77;;
33864;SDS011;20159;51.072;13.526;2023-06-10T04:09:36;9.80;;;8.80;;
33864;SDS011;20159;51.072;13.526;2023-06-10T04:12:01;9.07;;;7.93;;
33864;SDS011;20159;51.072;13.526;2023-06-10T04:14:27;8.65;;;7.82;;
33864;SDS011;20159;51.072;13.526;2023-06-10T04:16:53;8.25;;;7.47;;
33864;SDS011;20159;51.072;13.526;2023-06-10T04:19:19;9.05;;;7.57;;
33864;SDS011;20159;51.072;13.526;2023-06-10T04:21:44;8.40;;;7.63;;
33864;SDS011;20159;51.072;13.526;2023-06-10T04:24:10;9.38;;;8.57;;
33864;SDS011;20159;51.072;13.526;2023-06-10T04:26:35;9.07;;;8.25;;
33864;SDS011;20159;51.072;13.526;2023-06-10T04:29:01;9.13;;;8.27;;
33864;SDS011;20159;51.072;13.526;2023-06-10T04:31:27;9.77;;;8.77;;
33864;SDS011;20159;51.072;13.526;2023-06-10T04:33:52;10.30;;;9.25;;
33864;SDS011;20159;51.072;13.526;2023-06-10T04:36:18;9.73;;;8.82;;
33864;SDS011;20159;51.072;13.526;2023-06-10T04:38:44;9.68;;;8.77;;
33864;SDS011;20159;51.072;13.526;2023-06-10T04:41:09;9.65;;;8.65;;
33864;SDS011;20159;51.072;13.526;2023-06-10T04:43:35;8.75;;;7.95;;
33864;SDS011;20159;51.072;13.526;2023-06-10T04:46:00;9.63;;;8.68;;
33864;SDS011;20159;51.072;13.526;2023-06-10T04:48:26;9.32;;;8.18;;
33864;SDS011;20159;51.072;13.526;2023-06-10T04:50:52;8.80;;;8.00;;
33864;SDS011;20159;51.072;13.526;2023-06-10T04:53:17;8.32;;;7.63;;
33864;SDS011;20159;51.072;13.526;2023-06-10T04:55:43;8.55;;;7.82;;
33864;SDS011;20159;51.072;13.526;2023-06-10T04:58:09;9.18;;;8.27;;
33864;SDS011;20159;51.072;13.526;2023-06-10T05:00:34;9.10;;;8.13;;
33864;SDS011;20159;51.072;13.526;2023-06-10T05:03:00;9.32;;;7.82;;
33864;SDS011;20159;51.072;13.526;2023-06-10T05:05:25;8.18;;;7.47;;
33864;SDS011;20159;51.072;13.526;2023-06-10T05:07:51;8.55;;;7.68;;
33864;SDS011;20159;51.072;13.526;2023-06-10T05:10:16;8.98;;;8.18;;
33864;SDS011;20159;51.072;13.526;2023-06-10T05:12:42;9.35;;;8.05;;
33864;SDS011;20159;51.072;13.526;2023-06-10T05:15:08;9.05;;;8.18;;
33864;SDS011;20159;51.072;13.526;2023-06-10T05:17:33;9.15;;;8.30;;
33864;SDS011;20159;51.072;13.526;2023-06-10T05:20:02;8.80;;;7.93;;
33864;SDS011;20159;51.072;13.526;2023-06-10T05:22:28;8.48;;;7.53;;
33864;SDS011;20159;51.072;13.526;2023-06-10T05:24:53;8.25;;;7.38;;
33864;SDS011;20159;51.072;13.526;2023-06-10T05:27:19;9.30;;;7.38;;
33864;SDS011;20159;51.072;13.526;2023-06-10T05:29:46;7.97;;;7.20;;
33864;SDS011;20159;51.072;13.526;2023-06-10T05:32:11;9.27;;;7.20;;
33864;SDS011;20159;51.072;13.526;2023-06-10T05:34:38;7.93;;;7.13;;
33864;SDS011;20159;51.072;13.526;2023-06-10T05:37:04;6.97;;;6.32;;
33864;SDS011;20159;51.072;13.526;2023-06-10T05:39:29;7.63;;;6.10;;
33864;SDS011;20159;51.072;13.526;2023-06-10T05:41:55;6.47;;;5.88;;
33864;SDS011;20159;51.072;13.526;2023-06-10T05:44:21;6.15;;;5.65;;
33864;SDS011;20159;51.072;13.526;2023-06-10T05:46:46;6.30;;;5.70;;
33864;SDS011;20159;51.072;13.526;2023-06-10T05:49:12;6.30;;;5.78;;
33864;SDS011;20159;51.072;13.526;2023-06-10T05:51:37;6.82;;;6.13;;
33864;SDS011;20159;51.072;13.526;2023-06-10T05:54:03;6.40;;;5.68;;
33864;SDS011;20159;51.072;13.526;2023-06-10T05:56:29;5.95;;;5.35;;
33864;SDS011;20159;51.072;13.526;2023-06-10T05:58:57;7.57;;;5.70;;
33864;SDS011;20159;51.072;13.526;2023-06-10T06:01:23;6.30;;;5.28;;
33864;SDS011;20159;51.072;13.526;2023-06-10T06:03:48;6.38;;;5.13;;
33864;SDS011;20159;51.072;13.526;2023-06-10T06:06:23;5.68;;;5.18;;
33864;SDS011;20159;51.072;13.526;2023-06-10T06:08:52;5.60;;;5.07;;
33864;SDS011;20159;51.072;13.526;2023-06-10T06:11:17;6.35;;;5.10;;
33864;SDS011;20159;51.072;13.526;2023-06-10T06:13:44;8.05;;;5.35;;
33864;SDS011;20159;51.072;13.526;2023-06-10T06:16:10;5.82;;;5.10;;
33864;SDS011;20159;51.072;13.526;2023-06-10T06:18:35;5.40;;;4.90;;
33864;SDS011;20159;51.072;13.526;2023-06-10T06:21:01;5.72;;;5.10;;
33864;SDS011;20159;51.072;13.526;2023-06-10T06:23:26;5.80;;;5.30;;
33864;SDS011;20159;51.072;13.526;2023-06-10T06:25:52;5.32;;;4.75;;
33864;SDS011;20159;51.072;13.526;2023-06-10T06:28:17;5.07;;;4.60;;
33864;SDS011;20159;51.072;13.526;2023-06-10T06:30:44;5.78;;;4.90;;
33864;SDS011;20159;51.072;13.526;2023-06-10T06:33:09;5.07;;;4.57;;
33864;SDS011;20159;51.072;13.526;2023-06-10T06:35:35;4.90;;;4.40;;
33864;SDS011;20159;51.072;13.526;2023-06-10T06:38:03;5.40;;;4.63;;
33864;SDS011;20159;51.072;13.526;2023-06-10T06:40:29;4.90;;;4.00;;
33864;SDS011;20159;51.072;13.526;2023-06-10T06:42:54;4.35;;;3.95;;
33864;SDS011;20159;51.072;13.526;2023-06-10T06:45:20;4.90;;;4.40;;
33864;SDS011;20159;51.072;13.526;2023-06-10T06:47:45;4.53;;;4.13;;
33864;SDS011;20159;51.072;13.526;2023-06-10T06:50:11;4.82;;;4.43;;
33864;SDS011;20159;51.072;13.526;2023-06-10T06:52:36;4.55;;;4.07;;
33864;SDS011;20159;51.072;13.526;2023-06-10T06:55:02;4.47;;;4.07;;
33864;SDS011;20159;51.072;13.526;2023-06-10T06:57:28;4.47;;;4.07;;
33864;SDS011;20159;51.072;13.526;2023-06-10T06:59:53;4.93;;;4.38;;
33864;SDS011;20159;51.072;13.526;2023-06-10T07:02:19;4.35;;;3.60;;
33864;SDS011;20159;51.072;13.526;2023-06-10T07:04:44;3.95;;;3.65;;
33864;SDS011;20159;51.072;13.526;2023-06-10T07:07:11;4.05;;;3.65;;
33864;SDS011;20159;51.072;13.526;2023-06-10T07:09:37;4.28;;;3.88;;
33864;SDS011;20159;51.072;13.526;2023-06-10T07:12:03;4.30;;;3.90;;
33864;SDS011;20159;51.072;13.526;2023-06-10T07:14:29;4.55;;;4.03;;
33864;SDS011;20159;51.072;13.526;2023-06-10T07:16:55;5.13;;;4.15;;
33864;SDS011;20159;51.072;13.526;2023-06-10T07:19:20;5.28;;;4.35;;
33864;SDS011;20159;51.072;13.526;2023-06-10T07:21:46;5.10;;;4.30;;
33864;SDS011;20159;51.072;13.526;2023-06-10T07:24:12;5.90;;;4.60;;
33864;SDS011;20159;51.072;13.526;2023-06-10T07:26:38;4.93;;;4.53;;
33864;SDS011;20159;51.072;13.526;2023-06-10T07:29:03;4.65;;;4.25;;
33864;SDS011;20159;51.072;13.526;2023-06-10T07:31:29;5.43;;;4.03;;
33864;SDS011;20159;51.072;13.526;2023-06-10T07:33:54;5.15;;;4.65;;
33864;SDS011;20159;51.072;13.526;2023-06-10T07:36:20;7.75;;;4.95;;
33864;SDS011;20159;51.072;13.526;2023-06-10T07:38:45;5.10;;;4.60;;
33864;SDS011;20159;51.072;13.526;2023-06-10T07:41:11;5.20;;;4.28;;
33864;SDS011;20159;51.072;13.526;2023-06-10T07:43:37;5.13;;;4.57;;
33864;SDS011;20159;51.072;13.526;2023-06-10T07:46:03;5.28;;;4.78;;
33864;SDS011;20159;51.072;13.526;2023-06-10T07:48:30;4.88;;;4.35;;
33864;SDS011;20159;51.072;13.526;2023-06-10T07:50:55;5.55;;;4.95;;
33864;SDS011;20159;51.072;13.526;2023-06-10T07:53:21;11.18;;;4.70;;
33864;SDS011;20159;51.072;13.526;2023-06-10T07:55:46;5.40;;;4.90;;
33864;SDS011;20159;51.072;13.526;2023-06-10T07:58:12;7.50;;;5.88;;
33864;SDS011;20159;51.072;13.526;2023-06-10T08:00:37;6.50;;;5.85;;
33864;SDS011;20159;51.072;13.526;2023-06-10T08:03:03;6.05;;;5.45;;
33864;SDS011;20159;51.072;13.526;2023-06-10T08:05:28;6.95;;;5.32;;
33864;SDS011;20159;51.072;13.526;2023-06-10T08:07:55;7.35;;;5.47;;
33864;SDS011;20159;51.072;13.526;2023-06-10T08:10:21;6.03;;;5.43;;
33864;SDS011;20159;51.072;13.526;2023-06-10T08:12:46;5.65;;;5.10;;
33864;SDS011;20159;51.072;13.526;2023-06-10T08:15:12;7.75;;;5.28;;
33864;SDS011;20159;51.072;13.526;2023-06-10T08:17:37;6.72;;;4.97;;
33864;SDS011;20159;51.072;13.526;2023-06-10T08:20:04;5.75;;;5.22;;
33864;SDS011;20159;51.072;13.526;2023-06-10T08:22:30;5.38;;;4.88;;
33864;SDS011;20159;51.072;13.526;2023-06-10T08:24:56;4.72;;;4.22;;
33864;SDS011;20159;51.072;13.526;2023-06-10T08:27:21;5.07;;;4.55;;
33864;SDS011;20159;51.072;13.526;2023-06-10T08:29:48;5.22;;;4.68;;
33864;SDS011;20159;51.072;13.526;2023-06-10T08:32:14;5.60;;;5.10;;
33864;SDS011;20159;51.072;13.526;2023-06-10T08:34:39;5.25;;;4.38;;
33864;SDS011;20159;51.072;13.526;2023-06-10T08:37:06;5.70;;;4.88;;
33864;SDS011;20159;51.072;13.526;2023-06-10T08:39:32;4.50;;;4.10;;
33864;SDS011;20159;51.072;13.526;2023-06-10T08:44:45;4.68;;;4.28;;
33864;SDS011;20159;51.072;13.526;2023-06-10T08:47:14;5.47;;;3.90;;
33864;SDS011;20159;51.072;13.526;2023-06-10T08:49:44;3.83;;;3.53;;
33864;SDS011;20159;51.072;13.526;2023-06-10T08:52:11;7.43;;;4.00;;
33864;SDS011;20159;51.072;13.526;2023-06-10T08:54:52;4.13;;;3.72;;
33864;SDS011;20159;51.072;13.526;2023-06-10T08:57:21;3.97;;;3.63;;
33864;SDS011;20159;51.072;13.526;2023-06-10T08:59:48;4.30;;;3.90;;
33864;SDS011;20159;51.072;13.526;2023-06-10T09:02:14;4.95;;;4.20;;
33864;SDS011;20159;51.072;13.526;2023-06-10T09:04:42;4.85;;;3.72;;
33864;SDS011;20159;51.072;13.526;2023-06-10T09:07:08;4.35;;;3.90;;
33864;SDS011;20159;51.072;13.526;2023-06-10T09:09:36;3.90;;;3.60;;
33864;SDS011;20159;51.072;13.526;2023-06-10T09:12:02;4.10;;;3.80;;
33864;SDS011;20159;51.072;13.526;2023-06-10T09:14:28;5.35;;;3.92;;
33864;SDS011;20159;51.072;13.526;2023-06-10T09:16:54;4.65;;;4.15;;
33864;SDS011;20159;51.072;13.526;2023-06-10T09:19:23;5.65;;;4.03;;
33864;SDS011;20159;51.072;13.526;2023-06-10T09:21:50;5.00;;;3.83;;
33864;SDS011;20159;51.072;13.526;2023-06-10T09:24:15;4.97;;;4.07;;
33864;SDS011;20159;51.072;13.526;2023-06-10T09:26:41;4.28;;;3.78;;
33864;SDS011;20159;51.072;13.526;2023-06-10T09:29:07;4.68;;;3.80;;
33864;SDS011;20159;51.072;13.526;2023-06-10T09:31:34;4.30;;;3.75;;
33864;SDS011;20159;51.072;13.526;2023-06-10T09:34:04;4.28;;;3.72;;
33864;SDS011;20159;51.072;13.526;2023-06-10T09:36:32;5.90;;;4.45;;
33864;SDS011;20159;51.072;13.526;2023-06-10T09:38:58;4.32;;;3.83;;
33864;SDS011;20159;51.072;13.526;2023-06-10T09:41:39;4.07;;;3.58;;
33864;SDS011;20159;51.072;13.526;2023-06-10T09:44:12;4.10;;;3.70;;
33864;SDS011;20159;51.072;13.526;2023-06-10T09:46:39;4.03;;;3.63;;
33864;SDS011;20159;51.072;13.526;2023-06-10T09:49:06;5.10;;;4.00;;
33864;SDS011;20159;51.072;13.526;2023-06-10T09:51:31;4.85;;;3.90;;
33864;SDS011;20159;51.072;13.526;2023-06-10T09:53:57;4.10;;;3.60;;
33864;SDS011;20159;51.072;13.526;2023-06-10T09:56:36;4.75;;;3.47;;
33864;SDS011;20159;51.072;13.526;2023-06-10T09:59:07;3.38;;;2.97;;
33864;SDS011;20159;51.072;13.526;2023-06-10T10:01:33;3.63;;;2.83;;
33864;SDS011;20159;51.072;13.526;2023-06-10T10:03:59;4.53;;;3.60;;
33864;SDS011;20159;51.072;13.526;2023-06-10T10:06:26;3.95;;;3.55;;
33864;SDS011;20159;51.072;13.526;2023-06-10T10:08:52;3.75;;;3.42;;
33864;SDS011;20159;51.072;13.526;2023-06-10T10:11:18;4.90;;;3.30;;
33864;SDS011;20159;51.072;13.526;2023-06-10T10:13:47;4.00;;;3.25;;
33864;SDS011;20159;51.072;13.526;2023-06-10T10:16:15;4.07;;;3.67;;
33864;SDS011;20159;51.072;13.526;2023-06-10T10:19:07;5.40;;;3.78;;
33864;SDS011;20159;51.072;13.526;2023-06-10T10:21:43;4.32;;;3.58;;
33864;SDS011;20159;51.072;13.526;2023-06-10T10:24:18;4.75;;;4.20;;
33864;SDS011;20159;51.072;13.526;2023-06-10T10:26:47;3.70;;;3.40;;
33864;SDS011;20159;51.072;13.526;2023-06-10T10:31:42;3.85;;;3.53;;
33864;SDS011;20159;51.072;13.526;2023-06-10T10:34:12;6.22;;;4.00;;
33864;SDS011;20159;51.072;13.526;2023-06-10T10:36:41;3.92;;;3.53;;
33864;SDS011;20159;51.072;13.526;2023-06-10T10:39:08;4.40;;;4.00;;
33864;SDS011;20159;51.072;13.526;2023-06-10T10:41:34;4.97;;;3.67;;
33864;SDS011;20159;51.072;13.526;2023-06-10T10:44:02;5.15;;;4.15;;
33864;SDS011;20159;51.072;13.526;2023-06-10T10:46:37;5.13;;;3.70;;
33864;SDS011;20159;51.072;13.526;2023-06-10T10:49:07;4.85;;;4.10;;
33864;SDS011;20159;51.072;13.526;2023-06-10T10:51:35;4.35;;;3.92;;
33864;SDS011;20159;51.072;13.526;2023-06-10T10:54:14;4.13;;;3.70;;
33864;SDS011;20159;51.072;13.526;2023-06-10T10:56:39;4.90;;;3.70;;
33864;SDS011;20159;51.072;13.526;2023-06-10T10:59:25;4.05;;;3.65;;
33864;SDS011;20159;51.072;13.526;2023-06-10T11:02:07;4.28;;;3.55;;
33864;SDS011;20159;51.072;13.526;2023-06-10T11:04:33;5.07;;;3.78;;
33864;SDS011;20159;51.072;13.526;2023-06-10T11:07:05;5.65;;;4.07;;
33864;SDS011;20159;51.072;13.526;2023-06-10T11:09:31;4.03;;;3.40;;
33864;SDS011;20159;51.072;13.526;2023-06-10T11:11:58;4.32;;;3.92;;
33864;SDS011;20159;51.072;13.526;2023-06-10T11:14:27;4.30;;;3.90;;
33864;SDS011;20159;51.072;13.526;2023-06-10T11:16:56;4.70;;;4.00;;
33864;SDS011;20159;51.072;13.526;2023-06-10T11:19:33;4.47;;;3.67;;
33864;SDS011;20159;51.072;13.526;2023-06-10T11:22:01;4.75;;;3.70;;
33864;SDS011;20159;51.072;13.526;2023-06-10T11:24:28;6.32;;;3.83;;
33864;SDS011;20159;51.072;13.526;2023-06-10T11:26:54;4.28;;;3.88;;
33864;SDS011;20159;51.072;13.526;2023-06-10T11:29:39;9.95;;;3.80;;
33864;SDS011;20159;51.072;13.526;2023-06-10T11:32:04;4.25;;;3.85;;
33864;SDS011;20159;51.072;13.526;2023-06-10T11:34:31;4.68;;;3.80;;
33864;SDS011;20159;51.072;13.526;2023-06-10T11:36:56;5.75;;;3.70;;
33864;SDS011;20159;51.072;13.526;2023-06-10T11:39:23;4.25;;;3.80;;
33864;SDS011;20159;51.072;13.526;2023-06-10T11:41:49;4.32;;;3.92;;
33864;SDS011;20159;51.072;13.526;2023-06-10T11:44:16;4.53;;;3.78;;
33864;SDS011;20159;51.072;13.526;2023-06-10T11:46:42;4.45;;;4.05;;
33864;SDS011;20159;51.072;13.526;2023-06-10T11:49:07;6.45;;;4.05;;
33864;SDS011;20159;51.072;13.526;2023-06-10T11:51:42;7.78;;;3.97;;
33864;SDS011;20159;51.072;13.526;2023-06-10T11:54:14;4.38;;;3.95;;
33864;SDS011;20159;51.072;13.526;2023-06-10T11:56:40;4.38;;;3.95;;
33864;SDS011;20159;51.072;13.526;2023-06-10T11:59:06;5.65;;;4.20;;
33864;SDS011;20159;51.072;13.526;2023-06-10T12:01:42;4.47;;;4.05;;
33864;SDS011;20159;51.072;13.526;2023-06-10T12:04:10;6.00;;;4.40;;
33864;SDS011;20159;51.072;13.526;2023-06-10T12:09:22;5.10;;;3.88;;
33864;SDS011;20159;51.072;13.526;2023-06-10T12:11:49;4.60;;;3.83;;
33864;SDS011;20159;51.072;13.526;2023-06-10T12:17:34;4.57;;;4.18;;
33864;SDS011;20159;51.072;13.526;2023-06-10T12:20:03;5.03;;;4.38;;
33864;SDS011;20159;51.072;13.526;2023-06-10T12:22:40;6.68;;;3.88;;
33864;SDS011;20159;51.072;13.526;2023-06-10T12:25:08;4.15;;;3.55;;
33864;SDS011;20159;51.072;13.526;2023-06-10T12:27:34;4.45;;;3.85;;
33864;SDS011;20159;51.072;13.526;2023-06-10T12:30:02;4.38;;;3.97;;
33864;SDS011;20159;51.072;13.526;2023-06-10T12:35:08;4.50;;;4.10;;
33864;SDS011;20159;51.072;13.526;2023-06-10T12:37:37;5.00;;;3.92;;
33864;SDS011;20159;51.072;13.526;2023-06-10T12:40:03;5.97;;;3.75;;
33864;SDS011;20159;51.072;13.526;2023-06-10T12:42:36;3.65;;;3.10;;
33864;SDS011;20159;51.072;13.526;2023-06-10T12:45:03;4.47;;;3.45;;
33864;SDS011;20159;51.072;13.526;2023-06-10T12:47:33;3.60;;;3.30;;
33864;SDS011;20159;51.072;13.526;2023-06-10T12:50:00;4.57;;;3.60;;
33864;SDS011;20159;51.072;13.526;2023-06-10T12:52:27;4.22;;;3.30;;
33864;SDS011;20159;51.072;13.526;2023-06-10T12:54:53;4.40;;;3.33;;
33864;SDS011;20159;51.072;13.526;2023-06-10T12:57:19;3.42;;;3.13;;
33864;SDS011;20159;51.072;13.526;2023-06-10T12:59:46;3.30;;;3.00;;
33864;SDS011;20159;51.072;13.526;2023-06-10T13:02:17;3.45;;;3.08;;
33864;SDS011;20159;51.072;13.526;2023-06-10T13:04:45;4.35;;;3.40;;
33864;SDS011;20159;51.072;13.526;2023-06-10T13:07:11;3.85;;;3.22;;
33864;SDS011;20159;51.072;13.526;2023-06-10T13:09:38;4.15;;;3.10;;
33864;SDS011;20159;51.072;13.526;2023-06-10T13:12:04;4.13;;;3.15;;
33864;SDS011;20159;51.072;13.526;2023-06-10T13:14:30;3.70;;;3.28;;
33864;SDS011;20159;51.072;13.526;2023-06-10T13:16:56;4.65;;;3.08;;
33864;SDS011;20159;51.072;13.526;2023-06-10T13:19:21;3.97;;;3.10;;
33864;SDS011;20159;51.072;13.526;2023-06-10T13:21:47;4.80;;;3.20;;
33864;SDS011;20159;51.072;13.526;2023-06-10T13:24:13;4.43;;;3.50;;
33864;SDS011;20159;51.072;13.526;2023-06-10T13:26:38;3.63;;;3.33;;
33864;SDS011;20159;51.072;13.526;2023-06-10T13:29:04;3.30;;;3.00;;
33864;SDS011;20159;51.072;13.526;2023-06-10T13:31:30;6.28;;;3.55;;
33864;SDS011;20159;51.072;13.526;2023-06-10T13:33:57;4.07;;;3.35;;
33864;SDS011;20159;51.072;13.526;2023-06-10T13:36:22;4.38;;;3.42;;
33864;SDS011;20159;51.072;13.526;2023-06-10T13:38:48;4.25;;;3.00;;
33864;SDS011;20159;51.072;13.526;2023-06-10T13:41:13;3.78;;;2.75;;
33864;SDS011;20159;51.072;13.526;2023-06-10T13:43:39;3.40;;;3.10;;
33864;SDS011;20159;51.072;13.526;2023-06-10T13:46:04;4.20;;;2.92;;
33864;SDS011;20159;51.072;13.526;2023-06-10T13:48:30;3.90;;;3.13;;
33864;SDS011;20159;51.072;13.526;2023-06-10T13:50:56;5.03;;;3.50;;
33864;SDS011;20159;51.072;13.526;2023-06-10T13:53:21;4.38;;;2.80;;
33864;SDS011;20159;51.072;13.526;2023-06-10T13:55:47;3.13;;;2.65;;
33864;SDS011;20159;51.072;13.526;2023-06-10T13:58:13;5.35;;;3.00;;
33864;SDS011;20159;51.072;13.526;2023-06-10T14:00:38;5.03;;;3.00;;
33864;SDS011;20159;51.072;13.526;2023-06-10T14:03:04;4.47;;;3.00;;
33864;SDS011;20159;51.072;13.526;2023-06-10T14:05:29;3.33;;;2.90;;
33864;SDS011;20159;51.072;13.526;2023-06-10T14:07:55;3.45;;;2.95;;
33864;SDS011;20159;51.072;13.526;2023-06-10T14:10:20;3.45;;;2.90;;
33864;SDS011;20159;51.072;13.526;2023-06-10T14:12:46;5.20;;;2.90;;
33864;SDS011;20159;51.072;13.526;2023-06-10T14:15:11;3.90;;;2.80;;
33864;SDS011;20159;51.072;13.526;2023-06-10T14:17:37;2.42;;;2.22;;
33864;SDS011;20159;51.072;13.526;2023-06-10T14:20:03;3.10;;;2.50;;
33864;SDS011;20159;51.072;13.526;2023-06-10T14:22:29;2.47;;;2.28;;
33864;SDS011;20159;51.072;13.526;2023-06-10T14:24:54;2.95;;;2.63;;
33864;SDS011;20159;51.072;13.526;2023-06-10T14:27:20;2.25;;;2.03;;
33864;SDS011;20159;51.072;13.526;2023-06-10T14:29:45;3.55;;;2.67;;
33864;SDS011;20159;51.072;13.526;2023-06-10T14:32:11;3.03;;;2.60;;
33864;SDS011;20159;51.072;13.526;2023-06-10T14:34:36;3.03;;;2.72;;
33864;SDS011;20159;51.072;13.526;2023-06-10T14:37:03;4.13;;;2.60;;
33864;SDS011;20159;51.072;13.526;2023-06-10T14:39:32;4.30;;;2.45;;
33864;SDS011;20159;51.072;13.526;2023-06-10T14:41:57;4.68;;;2.75;;
33864;SDS011;20159;51.072;13.526;2023-06-10T14:44:23;2.92;;;2.50;;
33864;SDS011;20159;51.072;13.526;2023-06-10T14:46:48;4.57;;;2.42;;
33864;SDS011;20159;51.072;13.526;2023-06-10T14:49:14;2.47;;;2.17;;
33864;SDS011;20159;51.072;13.526;2023-06-10T14:51:39;3.20;;;2.45;;
33864;SDS011;20159;51.072;13.526;2023-06-10T14:54:05;5.55;;;2.50;;
33864;SDS011;20159;51.072;13.526;2023-06-10T14:56:30;3.30;;;2.60;;
33864;SDS011;20159;51.072;13.526;2023-06-10T14:58:56;5.68;;;2.78;;
33864;SDS011;20159;51.072;13.526;2023-06-10T15:01:21;3.60;;;2.63;;
33864;SDS011;20159;51.072;13.526;2023-06-10T15:03:47;3.20;;;2.78;;
33864;SDS011;20159;51.072;13.526;2023-06-10T15:06:13;3.00;;;2.38;;
33864;SDS011;20159;51.072;13.526;2023-06-10T15:08:42;4.68;;;2.85;;
33864;SDS011;20159;51.072;13.526;2023-06-10T15:11:07;3.15;;;2.75;;
33864;SDS011;20159;51.072;13.526;2023-06-10T15:13:33;3.17;;;2.45;;
33864;SDS011;20159;51.072;13.526;2023-06-10T15:15:58;3.08;;;2.67;;
33864;SDS011;20159;51.072;13.526;2023-06-10T15:18:24;3.42;;;2.50;;
33864;SDS011;20159;51.072;13.526;2023-06-10T15:20:49;2.60;;;2.35;;
33864;SDS011;20159;51.072;13.526;2023-06-10T15:23:16;4.22;;;2.80;;
33864;SDS011;20159;51.072;13.526;2023-06-10T15:25:41;3.13;;;2.78;;
33864;SDS011;20159;51.072;13.526;2023-06-10T15:28:07;3.42;;;2.80;;
33864;SDS011;20159;51.072;13.526;2023-06-10T15:30:33;2.97;;;2.65;;
33864;SDS011;20159;51.072;13.526;2023-06-10T15:32:59;3.25;;;2.60;;
33864;SDS011;20159;51.072;13.526;2023-06-10T15:35:24;5.47;;;3.22;;
33864;SDS011;20159;51.072;13.526;2023-06-10T15:37:51;3.63;;;2.90;;
33864;SDS011;20159;51.072;13.526;2023-06-10T15:40:16;3.00;;;2.70;;
33864;SDS011;20159;51.072;13.526;2023-06-10T15:42:42;3.72;;;3.30;;
33864;SDS011;20159;51.072;13.526;2023-06-10T15:45:08;3.55;;;3.25;;
33864;SDS011;20159;51.072;13.526;2023-06-10T15:47:34;3.58;;;3.10;;
33864;SDS011;20159;51.072;13.526;2023-06-10T15:50:00;4.15;;;3.42;;
33864;SDS011;20159;51.072;13.526;2023-06-10T15:52:25;3.88;;;3.42;;
33864;SDS011;20159;51.072;13.526;2023-06-10T15:54:51;4.57;;;3.35;;
33864;SDS011;20159;51.072;13.526;2023-06-10T15:57:16;4.60;;;3.38;;
33864;SDS011;20159;51.072;13.526;2023-06-10T15:59:42;3.78;;;3.33;;
33864;SDS011;20159;51.072;13.526;2023-06-10T16:02:07;4.85;;;3.30;;
33864;SDS011;20159;51.072;13.526;2023-06-10T16:04:33;3.95;;;3.30;;
33864;SDS011;20159;51.072;13.526;2023-06-10T16:06:58;4.28;;;3.30;;
33864;SDS011;20159;51.072;13.526;2023-06-10T16:09:24;3.88;;;3.25;;
33864;SDS011;20159;51.072;13.526;2023-06-10T16:11:49;4.25;;;3.63;;
33864;SDS011;20159;51.072;13.526;2023-06-10T16:14:15;6.82;;;3.60;;
33864;SDS011;20159;51.072;13.526;2023-06-10T16:16:40;5.85;;;3.67;;
33864;SDS011;20159;51.072;13.526;2023-06-10T16:19:06;3.72;;;3.05;;
33864;SDS011;20159;51.072;13.526;2023-06-10T16:21:31;4.30;;;3.55;;
33864;SDS011;20159;51.072;13.526;2023-06-10T16:23:56;4.40;;;3.95;;
33864;SDS011;20159;51.072;13.526;2023-06-10T16:26:22;4.35;;;3.72;;
33864;SDS011;20159;51.072;13.526;2023-06-10T16:28:48;4.63;;;3.65;;
33864;SDS011;20159;51.072;13.526;2023-06-10T16:31:13;4.72;;;3.42;;
33864;SDS011;20159;51.072;13.526;2023-06-10T16:33:39;4.05;;;3.35;;
33864;SDS011;20159;51.072;13.526;2023-06-10T16:36:05;4.70;;;3.53;;
33864;SDS011;20159;51.072;13.526;2023-06-10T16:38:30;5.75;;;3.58;;
33864;SDS011;20159;51.072;13.526;2023-06-10T16:40:56;4.50;;;3.78;;
33864;SDS011;20159;51.072;13.526;2023-06-10T16:43:22;5.65;;;3.67;;
33864;SDS011;20159;51.072;13.526;2023-06-10T16:45:49;4.30;;;3.90;;
33864;SDS011;20159;51.072;13.526;2023-06-10T16:48:15;4.60;;;3.80;;
33864;SDS011;20159;51.072;13.526;2023-06-10T16:50:40;4.22;;;3.70;;